Time;durP1;ratioP1;P1;durP2;ratioP2;P2;SDS_P1;SDS_P2;PMS_P1;PMS_P2;Temp;Humidity;BMP_temperature;BMP_pressure;BME280_temperature;BME280_humidity;BME280_pressure;Samples;Min_cycle;Max_cycle;Signal;HPM_P1;HPM_P2
2022/04/13 00:05:58;;;;;;;6.00;2.65;;;13.40;99.90;;;;;;20746717;28;20721;-46
2022/04/13 00:15:59;;;;;;;5.72;2.70;;;13.30;99.90;;;;;;20752171;28;20080;-45
2022/04/13 00:26:00;;;;;;;4.22;1.80;;;13.20;99.90;;;;;;20751362;28;20033;-46
2022/04/13 00:36:02;;;;;;;7.32;1.75;;;13.00;99.90;;;;;;20753919;28;20037;-46
2022/04/13 00:46:04;;;;;;;4.35;2.22;;;12.80;99.90;;;;;;20714234;28;20042;-46
2022/04/13 00:56:06;;;;;;;4.95;2.78;;;12.70;99.90;;;;;;20714925;28;20065;-46
2022/04/13 01:06:08;;;;;;;6.25;2.60;;;12.60;99.90;;;;;;20719900;28;20045;-45
2022/04/13 01:16:10;;;;;;;4.03;1.77;;;12.70;99.90;;;;;;20748687;28;20050;-46
2022/04/13 01:26:12;;;;;;;3.90;2.03;;;12.70;99.90;;;;;;20763700;28;20715;-46
2022/04/13 01:36:13;;;;;;;7.53;2.25;;;12.70;99.90;;;;;;20754598;28;20085;-45
2022/04/13 01:46:18;;;;;;;11.25;2.00;;;12.80;99.90;;;;;;20821420;28;20271;-46
2022/04/13 01:56:19;;;;;;;5.35;2.25;;;12.80;99.90;;;;;;20849014;28;20064;-46
2022/04/13 02:06:21;;;;;;;4.75;1.40;;;12.80;99.90;;;;;;20847351;28;20076;-46
2022/04/13 02:16:22;;;;;;;8.48;3.63;;;12.80;99.90;;;;;;20843734;28;20049;-46
2022/04/13 02:26:24;;;;;;;5.15;2.50;;;12.80;99.90;;;;;;20849322;28;20219;-45
2022/04/13 02:36:25;;;;;;;3.53;1.67;;;12.80;99.90;;;;;;20828604;28;20077;-46
2022/04/13 02:46:26;;;;;;;3.42;1.50;;;12.80;99.90;;;;;;20794344;28;20045;-46
2022/04/13 02:56:27;;;;;;;2.85;1.48;;;12.80;99.90;;;;;;20764790;28;20046;-45
2022/04/13 03:06:28;;;;;;;5.30;2.35;;;12.80;99.90;;;;;;20736080;28;20045;-45
2022/04/13 03:16:29;;;;;;;4.03;1.67;;;12.90;99.90;;;;;;20723699;28;20041;-45
2022/04/13 03:26:30;;;;;;;4.90;2.47;;;12.90;99.90;;;;;;20724314;28;20259;-46
2022/04/13 03:36:32;;;;;;;5.07;2.47;;;12.90;99.90;;;;;;20755029;28;20073;-45
2022/04/13 03:46:33;;;;;;;5.60;2.45;;;12.90;99.90;;;;;;20729374;28;20050;-46
2022/04/13 03:56:36;;;;;;;4.90;2.10;;;13.00;99.90;;;;;;20697585;28;20045;-46
2022/04/13 04:06:37;;;;;;;6.82;4.05;;;12.80;99.90;;;;;;20631893;28;20041;-45
2022/04/13 04:16:38;;;;;;;6.63;2.38;;;12.90;99.90;;;;;;20631475;28;20058;-46
2022/04/13 04:26:40;;;;;;;14.20;3.63;;;12.90;99.90;;;;;;20655713;28;20050;-46
2022/04/13 04:36:41;;;;;;;5.60;2.78;;;12.80;99.90;;;;;;20711265;28;20038;-45
2022/04/13 04:46:42;;;;;;;6.07;2.70;;;12.80;99.90;;;;;;20742445;28;20049;-46
2022/04/13 04:56:43;;;;;;;5.55;3.08;;;12.70;99.90;;;;;;20741682;28;20062;-45
2022/04/13 05:06:44;;;;;;;5.65;2.90;;;12.70;99.90;;;;;;20739610;28;20042;-46
2022/04/13 05:16:45;;;;;;;7.22;3.10;;;12.60;99.90;;;;;;20743578;28;20044;-45
2022/04/13 05:26:46;;;;;;;13.70;5.13;;;12.70;99.90;;;;;;20732777;28;20528;-46
2022/04/13 05:36:47;;;;;;;8.80;3.22;;;12.60;99.90;;;;;;20770175;28;20341;-46
2022/04/13 05:46:48;;;;;;;12.43;6.72;;;12.60;99.90;;;;;;20825731;28;20413;-46
2022/04/13 05:56:49;;;;;;;8.80;2.70;;;12.70;99.90;;;;;;20816664;28;20049;-46
2022/04/13 06:06:50;;;;;;;4.60;3.03;;;12.80;99.90;;;;;;20815058;28;20041;-46
2022/04/13 06:16:51;;;;;;;9.68;2.85;;;13.10;99.90;;;;;;20803045;28;20045;-46
2022/04/13 06:26:52;;;;;;;6.20;2.72;;;13.40;99.90;;;;;;20805012;28;20037;-46
2022/04/13 06:36:53;;;;;;;6.57;2.65;;;13.60;99.90;;;;;;20813620;28;20461;-46
2022/04/13 06:46:54;;;;;;;5.13;1.80;;;13.90;99.90;;;;;;20813850;28;20041;-46
2022/04/13 06:56:56;;;;;;;3.38;1.58;;;13.90;99.90;;;;;;20816760;28;20083;-46
2022/04/13 07:06:57;;;;;;;6.43;1.30;;;14.10;99.90;;;;;;20795807;28;20037;-45
2022/04/13 07:16:58;;;;;;;4.20;1.77;;;14.10;99.90;;;;;;20812941;28;20056;-46
2022/04/13 07:26:59;;;;;;;5.97;1.67;;;14.30;99.90;;;;;;20809961;28;20392;-46
2022/04/13 07:37:01;;;;;;;3.33;1.70;;;14.40;99.90;;;;;;20803820;28;20536;-46
2022/04/13 07:47:03;;;;;;;11.55;2.30;;;14.50;99.90;;;;;;20793622;28;20281;-46
2022/04/13 07:57:04;;;;;;;2.28;1.10;;;14.70;99.90;;;;;;20782348;28;20046;-46
2022/04/13 08:07:05;;;;;;;4.10;1.13;;;14.70;99.90;;;;;;20797679;28;20041;-46
2022/04/13 08:17:06;;;;;;;5.15;1.10;;;14.50;99.90;;;;;;20796075;28;20053;-46
2022/04/13 08:27:09;;;;;;;4.40;1.52;;;14.90;99.90;;;;;;20791447;28;20043;-46
2022/04/13 08:37:12;;;;;;;4.07;1.40;;;15.00;99.90;;;;;;20792228;28;20061;-47
2022/04/13 08:47:20;;;;;;;6.30;1.65;;;15.00;99.90;;;;;;20776477;28;20045;-46
2022/04/13 08:57:22;;;;;;;;;;;15.00;99.90;;;;;;20789880;28;20512;-46
2022/04/13 09:07:28;;;;;;;6.28;2.30;;;15.00;99.90;;;;;;20782242;28;20249;-46
2022/04/13 09:17:29;;;;;;;5.53;2.20;;;15.10;99.90;;;;;;20789482;28;20046;-46
2022/04/13 09:27:32;;;;;;;4.68;2.10;;;15.20;99.90;;;;;;20777587;28;20052;-46
2022/04/13 09:37:34;;;;;;;4.97;2.30;;;15.20;99.90;;;;;;20782497;28;20065;-46
2022/04/13 09:47:35;;;;;;;3.88;1.88;;;15.10;99.90;;;;;;20772093;28;20033;-46
2022/04/13 09:57:36;;;;;;;4.40;1.67;;;14.90;99.90;;;;;;20784794;28;20045;-46
2022/04/13 10:07:37;;;;;;;4.70;1.55;;;14.80;99.90;;;;;;20771848;28;20200;-46
2022/04/13 10:17:39;;;;;;;3.58;2.00;;;15.00;99.90;;;;;;20745305;28;20045;-46
2022/04/13 10:27:56;;;;;;;4.25;1.25;;;15.10;99.90;;;;;;20768587;28;20042;-46
2022/04/13 10:37:57;;;;;;;6.20;2.23;;;15.10;99.90;;;;;;20739443;28;20465;-46
2022/04/13 10:48:10;;;;;;;5.82;1.98;;;15.10;99.90;;;;;;20689416;28;20042;-46
2022/04/13 10:58:37;;;;;;;4.90;1.63;;;15.00;99.90;;;;;;20695366;28;20124;-46
2022/04/13 11:08:52;;;;;;;6.00;2.13;;;15.10;99.90;;;;;;20699218;28;20034;-46
2022/04/13 11:19:01;;;;;;;3.45;1.60;;;15.10;99.90;;;;;;20696685;28;20128;-46
2022/04/13 11:29:17;;;;;;;4.83;1.53;;;15.00;99.90;;;;;;20669237;28;20042;-48
2022/04/13 11:39:48;;;;;;;3.28;0.93;;;15.20;99.90;;;;;;20755601;28;20057;-48
2022/04/13 11:49:59;;;;;;;4.50;1.02;;;15.30;99.90;;;;;;20764673;28;20045;-48
2022/04/13 12:00:00;;;;;;;2.60;0.88;;;15.40;99.90;;;;;;20764284;28;20494;-49
2022/04/13 12:10:01;;;;;;;6.72;2.05;;;15.60;99.90;;;;;;20750370;28;20034;-49
2022/04/13 12:20:03;;;;;;;3.03;1.80;;;15.90;99.90;;;;;;20764125;28;20051;-48
2022/04/13 12:30:11;;;;;;;7.87;2.47;;;16.20;99.90;;;;;;20759000;28;20053;-49
2022/04/13 12:40:24;;;;;;;4.72;1.77;;;16.50;99.90;;;;;;20761674;28;20899;-49
2022/04/13 12:50:25;;;;;;;5.07;1.55;;;17.50;99.90;;;;;;20749947;28;20048;-49
2022/04/13 13:00:48;;;;;;;5.68;1.92;;;17.30;99.90;;;;;;20773359;28;20041;-49
2022/04/13 13:10:49;;;;;;;1.98;0.68;;;17.40;99.90;;;;;;20789661;28;20049;-49
2022/04/13 13:20:58;;;;;;;2.88;0.75;;;17.60;99.90;;;;;;20777278;28;20045;-49
2022/04/13 13:31:02;;;;;;;12.25;2.13;;;17.70;99.90;;;;;;20792881;28;20485;-49
2022/04/13 13:41:11;;;;;;;3.08;0.85;;;17.80;99.90;;;;;;20788342;28;20033;-49
2022/04/13 13:51:14;;;;;;;4.30;1.65;;;18.20;99.90;;;;;;20781959;28;20037;-49
2022/04/13 14:01:15;;;;;;;2.17;0.98;;;18.50;99.90;;;;;;20770486;28;20354;-49
2022/04/13 14:11:17;;;;;;;3.30;1.75;;;18.30;99.90;;;;;;20772012;28;20109;-49
2022/04/13 14:21:18;;;;;;;3.40;1.58;;;17.70;99.90;;;;;;20757954;28;21195;-49
2022/04/13 14:31:19;;;;;;;5.70;2.53;;;17.60;99.90;;;;;;20780187;28;20044;-49
2022/04/13 14:41:20;;;;;;;4.93;2.92;;;17.40;99.90;;;;;;20766259;28;20650;-49
2022/04/13 14:51:21;;;;;;;6.60;3.15;;;17.50;99.90;;;;;;20773475;28;20044;-49
2022/04/13 15:01:23;;;;;;;5.03;2.00;;;17.70;99.90;;;;;;20765512;28;20052;-49
2022/04/13 15:11:31;;;;;;;6.10;1.52;;;17.70;99.90;;;;;;20775115;28;20057;-49
2022/04/13 15:21:33;;;;;;;1.50;0.73;;;17.60;99.90;;;;;;20776401;28;20045;-49
2022/04/13 15:31:34;;;;;;;2.72;0.90;;;17.70;99.90;;;;;;20754724;28;20068;-49
2022/04/13 15:41:35;;;;;;;1.15;0.65;;;17.50;99.90;;;;;;20668657;28;20052;-49
2022/04/13 15:51:40;;;;;;;1.13;0.50;;;17.30;99.90;;;;;;20657778;28;20057;-49
2022/04/13 16:01:41;;;;;;;1.67;0.90;;;17.20;99.90;;;;;;20692911;28;20057;-49
2022/04/13 16:11:42;;;;;;;1.90;0.82;;;17.10;99.90;;;;;;20694851;28;20516;-49
2022/04/13 16:21:44;;;;;;;2.25;1.00;;;17.20;99.90;;;;;;20717731;28;20422;-49
2022/04/13 16:31:45;;;;;;;2.33;0.85;;;17.10;99.90;;;;;;20699858;28;20046;-49
2022/04/13 16:41:49;;;;;;;2.03;0.85;;;16.80;99.90;;;;;;20720414;28;20662;-49
2022/04/13 16:51:51;;;;;;;2.03;0.80;;;16.70;99.90;;;;;;20737295;28;20041;-48
2022/04/13 17:01:52;;;;;;;1.20;0.32;;;16.70;99.90;;;;;;20743687;28;20045;-49
2022/04/13 17:11:53;;;;;;;1.00;0.40;;;16.60;99.90;;;;;;20761131;28;20041;-49
2022/04/13 17:21:54;;;;;;;1.02;0.40;;;16.30;99.90;;;;;;20758949;28;20042;-49
2022/04/13 17:31:55;;;;;;;0.85;0.47;;;16.20;99.90;;;;;;20753123;28;20045;-50
2022/04/13 17:41:57;;;;;;;3.10;0.65;;;16.00;99.90;;;;;;20753395;28;20042;-49
2022/04/13 17:51:59;;;;;;;2.67;0.60;;;16.00;99.90;;;;;;20742014;28;20038;-49
2022/04/13 18:02:00;;;;;;;1.88;0.60;;;15.90;99.90;;;;;;20766078;28;20372;-49
2022/04/13 18:12:01;;;;;;;2.40;1.05;;;15.70;99.90;;;;;;20775373;28;20792;-49
2022/04/13 18:22:03;;;;;;;6.57;1.15;;;15.60;99.90;;;;;;20777867;28;20057;-49
2022/04/13 18:32:05;;;;;;;2.45;0.98;;;15.50;99.90;;;;;;20773115;28;20046;-49
2022/04/13 18:42:07;;;;;;;4.22;0.65;;;15.40;99.90;;;;;;20767603;28;20053;-49
2022/04/13 18:52:08;;;;;;;1.52;0.65;;;15.20;99.90;;;;;;20772648;28;20033;-49
2022/04/13 19:02:09;;;;;;;3.00;0.68;;;15.00;99.90;;;;;;20777598;28;20044;-49
2022/04/13 19:12:11;;;;;;;2.78;1.02;;;14.80;99.90;;;;;;20787606;28;20049;-49
2022/04/13 19:22:12;;;;;;;2.40;0.80;;;14.60;99.90;;;;;;20777664;28;20036;-50
2022/04/13 19:32:13;;;;;;;5.00;1.35;;;14.40;99.90;;;;;;20768399;28;20037;-49
2022/04/13 19:42:14;;;;;;;1.75;0.65;;;14.30;99.90;;;;;;20738468;28;20212;-49
2022/04/13 19:52:15;;;;;;;1.95;0.93;;;14.00;99.90;;;;;;20760498;28;20559;-49
2022/04/13 20:02:17;;;;;;;2.40;1.10;;;13.90;99.90;;;;;;20746560;28;20038;-49
2022/04/13 20:12:18;;;;;;;2.58;0.98;;;13.70;99.90;;;;;;20771700;28;20033;-49
2022/04/13 20:22:19;;;;;;;2.42;1.10;;;13.60;99.90;;;;;;20770309;28;20247;-49
2022/04/13 20:32:20;;;;;;;3.78;1.45;;;13.40;99.90;;;;;;20788137;28;20041;-49
2022/04/13 20:42:21;;;;;;;3.22;1.17;;;13.40;99.90;;;;;;20789978;28;20492;-49
2022/04/13 20:52:22;;;;;;;1.85;0.98;;;13.30;99.90;;;;;;20795394;28;20038;-49
2022/04/13 21:02:23;;;;;;;3.13;1.05;;;13.20;99.90;;;;;;20800337;28;20055;-50
2022/04/13 21:12:25;;;;;;;3.50;1.38;;;13.10;99.90;;;;;;20802534;28;20052;-49
2022/04/13 21:22:26;;;;;;;2.50;1.17;;;13.00;99.90;;;;;;20802743;28;20498;-49
2022/04/13 21:32:28;;;;;;;5.50;2.20;;;12.90;99.90;;;;;;20810836;28;20044;-49
2022/04/13 21:42:29;;;;;;;6.03;2.38;;;13.00;99.90;;;;;;20810679;28;20046;-50
2022/04/13 21:52:32;;;;;;;5.30;2.30;;;13.00;99.90;;;;;;20808464;28;20491;-49
2022/04/13 22:02:33;;;;;;;4.35;1.90;;;13.00;99.90;;;;;;20804073;28;20038;-49
2022/04/13 22:12:41;;;;;;;7.78;3.60;;;13.00;99.90;;;;;;20813660;28;20061;-49
2022/04/13 22:22:42;;;;;;;8.43;3.50;;;13.00;99.90;;;;;;20808097;28;20059;-50
2022/04/13 22:32:43;;;;;;;9.13;3.35;;;12.90;99.90;;;;;;20807491;28;20050;-49
2022/04/13 22:42:45;;;;;;;7.70;3.80;;;12.80;99.90;;;;;;20740288;28;20038;-49
2022/04/13 22:52:46;;;;;;;6.32;2.65;;;12.70;99.90;;;;;;20741739;28;20038;-49
2022/04/13 23:02:47;;;;;;;11.38;3.30;;;12.60;99.90;;;;;;20736190;28;20321;-49
2022/04/13 23:12:48;;;;;;;7.82;4.15;;;12.50;99.90;;;;;;20728041;28;20072;-49
2022/04/13 23:22:49;;;;;;;10.50;4.45;;;12.70;99.90;;;;;;20742456;28;20044;-49
2022/04/13 23:32:50;;;;;;;11.15;4.95;;;12.60;99.90;;;;;;20737756;28;20046;-49
2022/04/13 23:42:51;;;;;;;11.45;4.80;;;12.40;99.90;;;;;;20802348;28;20509;-49
2022/04/13 23:52:52;;;;;;;11.15;5.25;;;12.30;99.90;;;;;;20808835;28;20037;-49
